sensor_id;sensor_type;location;lat;lon;timestamp;pressure;altitude;pressure_sealevel;temperature;humidity
68179;BME280;54998;42.656;23.382;2022-12-10T00:01:46;94261.94;;;7.40;76.23
68179;BME280;54998;42.656;23.382;2022-12-10T00:04:13;94256.16;;;7.48;76.03
68179;BME280;54998;42.656;23.382;2022-12-10T00:06:39;94276.84;;;7.55;75.62
68179;BME280;54998;42.656;23.382;2022-12-10T00:09:07;94271.75;;;7.55;75.73
68179;BME280;54998;42.656;23.382;2022-12-10T00:11:34;94252.09;;;7.46;76.00
68179;BME280;54998;42.656;23.382;2022-12-10T00:13:59;94263.81;;;7.48;76.15
68179;BME280;54998;42.656;23.382;2022-12-10T00:16:26;94257.09;;;7.57;75.99
68179;BME280;54998;42.656;23.382;2022-12-10T00:18:53;94260.16;;;7.60;75.75
68179;BME280;54998;42.656;23.382;2022-12-10T00:21:21;94213.81;;;7.46;76.10
68179;BME280;54998;42.656;23.382;2022-12-10T00:23:47;94258.69;;;7.38;76.54
68179;BME280;54998;42.656;23.382;2022-12-10T00:26:21;94237.06;;;7.43;76.56
68179;BME280;54998;42.656;23.382;2022-12-10T00:28:48;94218.22;;;7.73;76.78
68179;BME280;54998;42.656;23.382;2022-12-10T00:33:44;94237.00;;;7.81;75.08
68179;BME280;54998;42.656;23.382;2022-12-10T00:36:13;94248.53;;;7.95;75.00
68179;BME280;54998;42.656;23.382;2022-12-10T00:38:39;94256.47;;;7.92;74.41
68179;BME280;54998;42.656;23.382;2022-12-10T00:41:05;94254.47;;;7.96;74.39
68179;BME280;54998;42.656;23.382;2022-12-10T00:43:31;94262.38;;;8.02;74.33
68179;BME280;54998;42.656;23.382;2022-12-10T00:45:57;94244.94;;;7.88;74.35
68179;BME280;54998;42.656;23.382;2022-12-10T00:48:23;94252.34;;;7.72;75.28
68179;BME280;54998;42.656;23.382;2022-12-10T00:53:28;94228.69;;;7.79;74.99
68179;BME280;54998;42.656;23.382;2022-12-10T00:55:53;94255.47;;;7.66;75.38
68179;BME280;54998;42.656;23.382;2022-12-10T00:58:20;94264.59;;;7.58;76.19
68179;BME280;54998;42.656;23.382;2022-12-10T01:00:46;94263.78;;;7.58;76.23
68179;BME280;54998;42.656;23.382;2022-12-10T01:03:12;94244.16;;;7.68;75.65
68179;BME280;54998;42.656;23.382;2022-12-10T01:05:37;94258.13;;;7.74;75.54
68179;BME280;54998;42.656;23.382;2022-12-10T01:08:03;94255.84;;;7.71;75.74
68179;BME280;54998;42.656;23.382;2022-12-10T01:10:28;94257.06;;;7.67;75.86
68179;BME280;54998;42.656;23.382;2022-12-10T01:12:53;94249.28;;;7.68;76.00
68179;BME280;54998;42.656;23.382;2022-12-10T01:15:19;94249.13;;;7.70;75.86
68179;BME280;54998;42.656;23.382;2022-12-10T01:17:45;94249.69;;;7.64;76.18
68179;BME280;54998;42.656;23.382;2022-12-10T01:20:11;94221.44;;;7.75;75.94
68179;BME280;54998;42.656;23.382;2022-12-10T01:22:37;94239.72;;;7.60;76.36
68179;BME280;54998;42.656;23.382;2022-12-10T01:25:03;94233.03;;;7.59;76.95
68179;BME280;54998;42.656;23.382;2022-12-10T01:27:28;94220.78;;;7.63;76.53
68179;BME280;54998;42.656;23.382;2022-12-10T01:29:54;94238.66;;;7.73;76.71
68179;BME280;54998;42.656;23.382;2022-12-10T01:32:19;94231.34;;;7.78;76.19
68179;BME280;54998;42.656;23.382;2022-12-10T01:34:44;94234.34;;;7.73;76.33
68179;BME280;54998;42.656;23.382;2022-12-10T01:37:10;94225.63;;;7.66;76.38
68179;BME280;54998;42.656;23.382;2022-12-10T01:39:36;94209.34;;;7.77;75.98
68179;BME280;54998;42.656;23.382;2022-12-10T01:42:02;94228.97;;;7.67;76.28
68179;BME280;54998;42.656;23.382;2022-12-10T01:46:58;94218.63;;;7.58;76.74
68179;BME280;54998;42.656;23.382;2022-12-10T01:49:26;94226.97;;;7.70;76.51
68179;BME280;54998;42.656;23.382;2022-12-10T01:51:56;94213.34;;;7.79;76.27
68179;BME280;54998;42.656;23.382;2022-12-10T01:56:58;94219.13;;;7.81;75.88
68179;BME280;54998;42.656;23.382;2022-12-10T01:59:24;94221.41;;;7.85;75.89
68179;BME280;54998;42.656;23.382;2022-12-10T02:15:16;94221.16;;;7.78;76.39
68179;BME280;54998;42.656;23.382;2022-12-10T02:17:45;94225.69;;;7.84;76.45
68179;BME280;54998;42.656;23.382;2022-12-10T02:20:17;94231.19;;;7.89;76.04
68179;BME280;54998;42.656;23.382;2022-12-10T02:22:50;94234.81;;;7.96;76.17
68179;BME280;54998;42.656;23.382;2022-12-10T02:25:19;94221.38;;;7.94;76.10
68179;BME280;54998;42.656;23.382;2022-12-10T02:28:23;94204.19;;;7.87;76.42
68179;BME280;54998;42.656;23.382;2022-12-10T02:30:52;94206.50;;;7.80;77.06
68179;BME280;54998;42.656;23.382;2022-12-10T02:33:19;94193.16;;;7.86;76.94
68179;BME280;54998;42.656;23.382;2022-12-10T02:35:49;94199.31;;;7.93;76.62
68179;BME280;54998;42.656;23.382;2022-12-10T02:38:22;94198.66;;;7.91;76.55
68179;BME280;54998;42.656;23.382;2022-12-10T02:40:53;94181.16;;;7.96;76.53
68179;BME280;54998;42.656;23.382;2022-12-10T02:43:23;94195.06;;;7.84;76.81
68179;BME280;54998;42.656;23.382;2022-12-10T02:45:50;94197.97;;;7.89;77.03
68179;BME280;54998;42.656;23.382;2022-12-10T02:48:16;94190.59;;;7.96;76.82
68179;BME280;54998;42.656;23.382;2022-12-10T02:50:43;94168.91;;;8.00;76.87
68179;BME280;54998;42.656;23.382;2022-12-10T02:53:08;94182.16;;;7.76;77.38
68179;BME280;54998;42.656;23.382;2022-12-10T02:55:49;94164.50;;;7.92;77.42
68179;BME280;54998;42.656;23.382;2022-12-10T03:00:58;94182.50;;;8.00;77.13
68179;BME280;54998;42.656;23.382;2022-12-10T03:03:44;94189.97;;;8.12;76.92
68179;BME280;54998;42.656;23.382;2022-12-10T03:06:52;94198.03;;;8.17;76.62
68179;BME280;54998;42.656;23.382;2022-12-10T03:09:22;94190.25;;;8.09;76.76
68179;BME280;54998;42.656;23.382;2022-12-10T03:12:06;94203.19;;;7.97;77.13
68179;BME280;54998;42.656;23.382;2022-12-10T03:14:36;94197.53;;;8.03;76.91
68179;BME280;54998;42.656;23.382;2022-12-10T03:17:03;94201.56;;;8.06;77.06
68179;BME280;54998;42.656;23.382;2022-12-10T03:19:40;94195.22;;;8.10;76.90
68179;BME280;54998;42.656;23.382;2022-12-10T03:22:07;94195.78;;;8.04;77.05
68179;BME280;54998;42.656;23.382;2022-12-10T03:24:34;94187.97;;;8.06;76.92
68179;BME280;54998;42.656;23.382;2022-12-10T03:27:03;94197.09;;;8.08;77.24
68179;BME280;54998;42.656;23.382;2022-12-10T03:29:45;94187.03;;;8.07;76.79
68179;BME280;54998;42.656;23.382;2022-12-10T03:32:11;94184.19;;;8.10;77.02
68179;BME280;54998;42.656;23.382;2022-12-10T03:34:37;94174.31;;;7.97;77.43
68179;BME280;54998;42.656;23.382;2022-12-10T03:37:03;94164.03;;;8.07;77.40
68179;BME280;54998;42.656;23.382;2022-12-10T03:39:30;94190.88;;;8.20;77.13
68179;BME280;54998;42.656;23.382;2022-12-10T03:41:55;94196.69;;;8.13;76.91
68179;BME280;54998;42.656;23.382;2022-12-10T03:44:35;94184.19;;;8.10;77.46
68179;BME280;54998;42.656;23.382;2022-12-10T03:47:03;94169.81;;;8.09;77.42
68179;BME280;54998;42.656;23.382;2022-12-10T03:49:29;94170.88;;;8.06;77.65
68179;BME280;54998;42.656;23.382;2022-12-10T03:51:54;94164.59;;;8.28;77.08
68179;BME280;54998;42.656;23.382;2022-12-10T03:54:20;94173.59;;;8.32;76.86
68179;BME280;54998;42.656;23.382;2022-12-10T03:56:46;94169.41;;;8.41;76.63
68179;BME280;54998;42.656;23.382;2022-12-10T03:59:11;94177.91;;;8.41;76.40
68179;BME280;54998;42.656;23.382;2022-12-10T04:01:37;94175.44;;;8.40;76.74
68179;BME280;54998;42.656;23.382;2022-12-10T04:04:04;94161.56;;;8.52;76.25
68179;BME280;54998;42.656;23.382;2022-12-10T04:06:30;94151.53;;;8.31;76.92
68179;BME280;54998;42.656;23.382;2022-12-10T04:08:55;94150.22;;;8.27;77.50
68179;BME280;54998;42.656;23.382;2022-12-10T04:11:20;94169.63;;;8.20;77.90
68179;BME280;54998;42.656;23.382;2022-12-10T04:13:46;94166.88;;;8.31;77.33
68179;BME280;54998;42.656;23.382;2022-12-10T04:16:31;94144.00;;;8.30;77.73
68179;BME280;54998;42.656;23.382;2022-12-10T04:19:03;94152.91;;;8.26;78.39
68179;BME280;54998;42.656;23.382;2022-12-10T04:21:31;94169.63;;;8.20;78.96
68179;BME280;54998;42.656;23.382;2022-12-10T04:24:17;94163.34;;;8.32;78.63
68179;BME280;54998;42.656;23.382;2022-12-10T04:27:06;94159.34;;;8.30;79.19
68179;BME280;54998;42.656;23.382;2022-12-10T04:29:32;94165.84;;;8.24;80.00
68179;BME280;54998;42.656;23.382;2022-12-10T04:31:58;94164.75;;;8.27;80.14
68179;BME280;54998;42.656;23.382;2022-12-10T04:34:24;94171.59;;;8.26;80.34
68179;BME280;54998;42.656;23.382;2022-12-10T04:36:50;94164.19;;;8.05;81.54
68179;BME280;54998;42.656;23.382;2022-12-10T04:39:16;94186.31;;;8.14;81.72
68179;BME280;54998;42.656;23.382;2022-12-10T04:41:43;94179.78;;;8.02;82.29
68179;BME280;54998;42.656;23.382;2022-12-10T04:44:09;94177.47;;;7.81;83.68
68179;BME280;54998;42.656;23.382;2022-12-10T04:46:35;94183.06;;;7.85;83.71
68179;BME280;54998;42.656;23.382;2022-12-10T04:49:01;94175.72;;;7.72;84.78
68179;BME280;54998;42.656;23.382;2022-12-10T04:51:26;94169.50;;;7.84;84.59
68179;BME280;54998;42.656;23.382;2022-12-10T04:53:52;94190.91;;;7.83;84.80
68179;BME280;54998;42.656;23.382;2022-12-10T04:56:17;94207.75;;;7.66;85.79
68179;BME280;54998;42.656;23.382;2022-12-10T04:58:43;94180.03;;;7.71;85.79
68179;BME280;54998;42.656;23.382;2022-12-10T05:01:09;94180.69;;;7.73;85.57
68179;BME280;54998;42.656;23.382;2022-12-10T05:03:35;94191.59;;;7.75;86.01
68179;BME280;54998;42.656;23.382;2022-12-10T05:06:02;94170.03;;;7.88;85.69
68179;BME280;54998;42.656;23.382;2022-12-10T05:08:28;94171.38;;;7.82;86.08
68179;BME280;54998;42.656;23.382;2022-12-10T05:10:54;94183.25;;;7.83;85.87
68179;BME280;54998;42.656;23.382;2022-12-10T05:13:19;94181.66;;;7.72;86.92
68179;BME280;54998;42.656;23.382;2022-12-10T05:15:45;94178.94;;;7.84;86.73
68179;BME280;54998;42.656;23.382;2022-12-10T05:18:10;94180.09;;;7.89;86.62
68179;BME280;54998;42.656;23.382;2022-12-10T05:20:35;94198.81;;;7.80;86.73
68179;BME280;54998;42.656;23.382;2022-12-10T05:23:01;94177.47;;;7.81;86.96
68179;BME280;54998;42.656;23.382;2022-12-10T05:25:45;94156.84;;;7.92;85.87
68179;BME280;54998;42.656;23.382;2022-12-10T05:28:20;94150.28;;;7.80;86.53
68179;BME280;54998;42.656;23.382;2022-12-10T05:30:46;94166.03;;;7.85;86.82
68179;BME280;54998;42.656;23.382;2022-12-10T05:33:11;94155.81;;;7.85;86.79
68179;BME280;54998;42.656;23.382;2022-12-10T05:35:36;94162.75;;;7.93;86.74
68179;BME280;54998;42.656;23.382;2022-12-10T05:38:02;94150.97;;;7.82;86.85
68179;BME280;54998;42.656;23.382;2022-12-10T05:40:27;94163.53;;;7.66;87.48
68179;BME280;54998;42.656;23.382;2022-12-10T05:42:53;94173.59;;;7.67;87.83
68179;BME280;54998;42.656;23.382;2022-12-10T05:45:18;94181.38;;;7.75;87.51
68179;BME280;54998;42.656;23.382;2022-12-10T05:47:43;94173.16;;;7.72;87.40
68179;BME280;54998;42.656;23.382;2022-12-10T05:50:09;94174.69;;;7.65;88.18
68179;BME280;54998;42.656;23.382;2022-12-10T05:52:34;94182.31;;;7.74;87.99
68179;BME280;54998;42.656;23.382;2022-12-10T05:54:59;94186.72;;;7.82;87.81
68179;BME280;54998;42.656;23.382;2022-12-10T05:57:25;94175.53;;;7.93;87.51
68179;BME280;54998;42.656;23.382;2022-12-10T05:59:50;94176.91;;;7.87;87.45
68179;BME280;54998;42.656;23.382;2022-12-10T06:02:16;94184.56;;;7.87;87.51
68179;BME280;54998;42.656;23.382;2022-12-10T06:04:41;94194.19;;;8.03;87.12
68179;BME280;54998;42.656;23.382;2022-12-10T06:07:06;94198.06;;;8.07;87.04
68179;BME280;54998;42.656;23.382;2022-12-10T06:09:32;94194.97;;;8.03;87.24
68179;BME280;54998;42.656;23.382;2022-12-10T06:11:57;94194.66;;;8.16;86.84
68179;BME280;54998;42.656;23.382;2022-12-10T06:14:23;94191.56;;;8.13;86.78
68179;BME280;54998;42.656;23.382;2022-12-10T06:16:48;94184.72;;;8.13;86.63
68179;BME280;54998;42.656;23.382;2022-12-10T06:19:13;94176.22;;;8.22;86.27
68179;BME280;54998;42.656;23.382;2022-12-10T06:21:39;94192.56;;;8.30;85.75
68179;BME280;54998;42.656;23.382;2022-12-10T06:24:04;94185.03;;;8.28;86.02
68179;BME280;54998;42.656;23.382;2022-12-10T06:26:30;94191.09;;;7.99;86.70
68179;BME280;54998;42.656;23.382;2022-12-10T06:28:55;94198.31;;;8.14;86.92
68179;BME280;54998;42.656;23.382;2022-12-10T06:31:21;94189.09;;;8.31;86.26
68179;BME280;54998;42.656;23.382;2022-12-10T06:33:47;94177.81;;;8.23;86.21
68179;BME280;54998;42.656;23.382;2022-12-10T06:36:15;94168.41;;;8.24;86.03
68179;BME280;54998;42.656;23.382;2022-12-10T06:38:41;94179.00;;;8.29;86.06
68179;BME280;54998;42.656;23.382;2022-12-10T06:41:08;94173.03;;;8.38;85.95
68179;BME280;54998;42.656;23.382;2022-12-10T06:43:35;94160.94;;;8.40;85.50
68179;BME280;54998;42.656;23.382;2022-12-10T06:46:08;94179.19;;;8.18;86.81
68179;BME280;54998;42.656;23.382;2022-12-10T06:48:34;94181.56;;;8.29;87.03
68179;BME280;54998;42.656;23.382;2022-12-10T06:50:59;94188.38;;;8.38;86.81
68179;BME280;54998;42.656;23.382;2022-12-10T06:53:25;94186.56;;;8.21;87.13
68179;BME280;54998;42.656;23.382;2022-12-10T06:55:50;94188.84;;;8.24;87.45
68179;BME280;54998;42.656;23.382;2022-12-10T06:58:16;94199.56;;;8.37;87.01
68179;BME280;54998;42.656;23.382;2022-12-10T07:00:41;94199.25;;;8.50;86.62
68179;BME280;54998;42.656;23.382;2022-12-10T07:03:06;94206.31;;;8.56;86.19
68179;BME280;54998;42.656;23.382;2022-12-10T07:05:32;94193.25;;;8.41;86.84
68179;BME280;54998;42.656;23.382;2022-12-10T07:07:57;94189.69;;;8.52;86.71
68179;BME280;54998;42.656;23.382;2022-12-10T07:10:23;94199.25;;;8.50;86.63
68179;BME280;54998;42.656;23.382;2022-12-10T07:12:49;94204.41;;;8.40;87.12
68179;BME280;54998;42.656;23.382;2022-12-10T07:15:14;94208.59;;;8.41;86.98
68179;BME280;54998;42.656;23.382;2022-12-10T07:17:40;94207.97;;;8.48;87.03
68179;BME280;54998;42.656;23.382;2022-12-10T07:20:06;94202.31;;;8.54;86.69
68179;BME280;54998;42.656;23.382;2022-12-10T07:22:31;94200.72;;;8.53;87.01
68179;BME280;54998;42.656;23.382;2022-12-10T07:24:57;94188.63;;;8.45;86.91
68179;BME280;54998;42.656;23.382;2022-12-10T07:27:22;94181.91;;;8.34;87.55
68179;BME280;54998;42.656;23.382;2022-12-10T07:29:47;94180.34;;;8.61;87.16
68179;BME280;54998;42.656;23.382;2022-12-10T07:32:13;94160.28;;;8.56;87.21
68179;BME280;54998;42.656;23.382;2022-12-10T07:34:38;94160.28;;;8.56;87.14
68179;BME280;54998;42.656;23.382;2022-12-10T07:37:04;94175.72;;;8.37;87.87
68179;BME280;54998;42.656;23.382;2022-12-10T07:39:29;94174.66;;;8.39;88.20
68179;BME280;54998;42.656;23.382;2022-12-10T07:41:54;94155.13;;;8.48;87.76
68179;BME280;54998;42.656;23.382;2022-12-10T07:44:23;94152.97;;;8.43;87.53
68179;BME280;54998;42.656;23.382;2022-12-10T07:46:50;94151.22;;;8.44;87.71
68179;BME280;54998;42.656;23.382;2022-12-10T07:49:17;94170.59;;;8.47;87.24
68179;BME280;54998;42.656;23.382;2022-12-10T07:51:49;94173.41;;;8.43;87.36
68179;BME280;54998;42.656;23.382;2022-12-10T07:54:16;94165.00;;;8.61;87.43
68179;BME280;54998;42.656;23.382;2022-12-10T07:56:42;94168.50;;;8.78;87.10
68179;BME280;54998;42.656;23.382;2022-12-10T07:59:07;94170.19;;;8.87;86.69
68179;BME280;54998;42.656;23.382;2022-12-10T08:01:33;94152.63;;;9.10;85.77
68179;BME280;54998;42.656;23.382;2022-12-10T08:03:59;94157.63;;;9.38;85.12
68179;BME280;54998;42.656;23.382;2022-12-10T08:06:26;94149.53;;;9.51;83.84
68179;BME280;54998;42.656;23.382;2022-12-10T08:08:52;94149.63;;;9.41;83.59
68179;BME280;54998;42.656;23.382;2022-12-10T08:11:19;94130.84;;;9.58;83.37
68179;BME280;54998;42.656;23.382;2022-12-10T08:13:45;94141.19;;;9.75;82.58
68179;BME280;54998;42.656;23.382;2022-12-10T08:16:17;94139.97;;;9.53;82.58
68179;BME280;54998;42.656;23.382;2022-12-10T08:18:44;94139.81;;;9.54;82.96
68179;BME280;54998;42.656;23.382;2022-12-10T08:21:17;94137.84;;;9.74;82.64
68179;BME280;54998;42.656;23.382;2022-12-10T08:23:44;94160.44;;;9.53;82.27
68179;BME280;54998;42.656;23.382;2022-12-10T08:26:13;94140.22;;;9.41;83.38
68179;BME280;54998;42.656;23.382;2022-12-10T08:28:38;94114.41;;;9.69;82.89
68179;BME280;54998;42.656;23.382;2022-12-10T08:31:05;94139.00;;;9.88;82.21
68179;BME280;54998;42.656;23.382;2022-12-10T08:33:35;94141.19;;;9.75;82.36
68179;BME280;54998;42.656;23.382;2022-12-10T08:36:02;94120.97;;;9.98;81.79
68179;BME280;54998;42.656;23.382;2022-12-10T08:38:29;94116.44;;;10.34;79.66
68179;BME280;54998;42.656;23.382;2022-12-10T08:40:54;94117.38;;;10.25;79.89
68179;BME280;54998;42.656;23.382;2022-12-10T08:43:20;94127.31;;;9.85;81.70
68179;BME280;54998;42.656;23.382;2022-12-10T08:45:45;94130.19;;;10.25;80.99
68179;BME280;54998;42.656;23.382;2022-12-10T08:48:10;94117.44;;;10.41;79.40
68179;BME280;54998;42.656;23.382;2022-12-10T08:50:37;94091.44;;;10.28;79.77
68179;BME280;54998;42.656;23.382;2022-12-10T08:53:02;94088.41;;;10.41;79.56
68179;BME280;54998;42.656;23.382;2022-12-10T08:55:28;94082.63;;;10.31;79.64
68179;BME280;54998;42.656;23.382;2022-12-10T08:57:53;94088.13;;;10.60;78.86
68179;BME280;54998;42.656;23.382;2022-12-10T09:00:19;94090.38;;;10.80;77.99
68179;BME280;54998;42.656;23.382;2022-12-10T09:02:45;94101.63;;;11.03;77.05
68179;BME280;54998;42.656;23.382;2022-12-10T09:05:10;94089.75;;;11.10;76.65
68179;BME280;54998;42.656;23.382;2022-12-10T09:07:36;94097.91;;;10.57;78.15
68179;BME280;54998;42.656;23.382;2022-12-10T09:10:02;94103.88;;;10.74;78.76
68179;BME280;54998;42.656;23.382;2022-12-10T09:12:27;94082.50;;;11.14;77.25
68179;BME280;54998;42.656;23.382;2022-12-10T09:14:53;94073.56;;;10.85;77.57
68179;BME280;54998;42.656;23.382;2022-12-10T09:17:18;94069.81;;;10.31;79.22
68179;BME280;54998;42.656;23.382;2022-12-10T09:19:44;94078.97;;;10.41;80.31
68179;BME280;54998;42.656;23.382;2022-12-10T09:22:09;94085.91;;;10.90;79.26
68179;BME280;54998;42.656;23.382;2022-12-10T09:24:34;94073.50;;;11.35;77.70
68179;BME280;54998;42.656;23.382;2022-12-10T09:27:03;94095.66;;;10.62;78.89
68179;BME280;54998;42.656;23.382;2022-12-10T09:29:28;94097.13;;;11.05;78.66
68179;BME280;54998;42.656;23.382;2022-12-10T09:31:54;94083.50;;;11.21;76.60
68179;BME280;54998;42.656;23.382;2022-12-10T09:34:20;94072.28;;;10.98;77.68
68179;BME280;54998;42.656;23.382;2022-12-10T09:36:46;94069.69;;;11.06;77.83
68179;BME280;54998;42.656;23.382;2022-12-10T09:39:11;94052.84;;;11.03;77.54
68179;BME280;54998;42.656;23.382;2022-12-10T09:44:21;94033.19;;;11.35;76.65
68179;BME280;54998;42.656;23.382;2022-12-10T09:46:55;94024.72;;;11.26;77.62
68179;BME280;54998;42.656;23.382;2022-12-10T09:51:47;94031.25;;;12.24;74.77
68179;BME280;54998;42.656;23.382;2022-12-10T09:54:29;94032.38;;;12.68;72.17
68179;BME280;54998;42.656;23.382;2022-12-10T09:56:57;94032.91;;;12.17;72.90
68179;BME280;54998;42.656;23.382;2022-12-10T09:59:34;94032.84;;;11.94;73.33
68179;BME280;54998;42.656;23.382;2022-12-10T10:04:41;94034.22;;;11.74;74.97
68179;BME280;54998;42.656;23.382;2022-12-10T10:07:16;94048.63;;;11.91;75.76
68179;BME280;54998;42.656;23.382;2022-12-10T10:09:44;94029.81;;;12.68;72.73
68179;BME280;54998;42.656;23.382;2022-12-10T10:12:13;94004.97;;;13.72;70.88
68179;BME280;54998;42.656;23.382;2022-12-10T10:14:41;94002.00;;;15.54;63.71
68179;BME280;54998;42.656;23.382;2022-12-10T10:17:19;94014.19;;;16.83;59.04
68179;BME280;54998;42.656;23.382;2022-12-10T10:19:45;94018.75;;;17.15;57.30
68179;BME280;54998;42.656;23.382;2022-12-10T10:22:11;94023.34;;;18.11;53.95
68179;BME280;54998;42.656;23.382;2022-12-10T10:24:41;94016.78;;;18.40;52.95
68179;BME280;54998;42.656;23.382;2022-12-10T10:27:16;94005.97;;;18.05;53.41
68179;BME280;54998;42.656;23.382;2022-12-10T10:29:43;94003.97;;;17.09;54.63
68179;BME280;54998;42.656;23.382;2022-12-10T10:34:39;93996.44;;;17.07;55.13
68179;BME280;54998;42.656;23.382;2022-12-10T10:37:05;93980.84;;;16.74;57.16
68179;BME280;54998;42.656;23.382;2022-12-10T10:39:32;93976.06;;;17.31;55.42
68179;BME280;54998;42.656;23.382;2022-12-10T10:42:09;93977.72;;;16.85;56.25
68179;BME280;54998;42.656;23.382;2022-12-10T10:44:37;93973.47;;;17.24;55.64
68179;BME280;54998;42.656;23.382;2022-12-10T10:47:33;93962.16;;;18.22;52.85
68179;BME280;54998;42.656;23.382;2022-12-10T10:49:59;93961.09;;;17.98;52.75
68179;BME280;54998;42.656;23.382;2022-12-10T10:52:29;93971.16;;;17.74;54.65
68179;BME280;54998;42.656;23.382;2022-12-10T10:54:55;93964.13;;;18.26;53.10
68179;BME280;54998;42.656;23.382;2022-12-10T10:57:24;93968.50;;;18.33;52.54
68179;BME280;54998;42.656;23.382;2022-12-10T10:59:55;93954.44;;;18.40;51.91
68179;BME280;54998;42.656;23.382;2022-12-10T11:02:30;93945.53;;;18.30;52.24
68179;BME280;54998;42.656;23.382;2022-12-10T11:05:08;93955.06;;;18.04;53.01
68179;BME280;54998;42.656;23.382;2022-12-10T11:07:40;93932.66;;;18.10;52.76
68179;BME280;54998;42.656;23.382;2022-12-10T11:10:21;93929.28;;;17.57;54.08
68179;BME280;54998;42.656;23.382;2022-12-10T11:12:56;93937.81;;;16.66;57.68
68179;BME280;54998;42.656;23.382;2022-12-10T11:17:49;93909.97;;;17.98;53.27
68179;BME280;54998;42.656;23.382;2022-12-10T11:20:24;93914.31;;;16.74;57.22
68179;BME280;54998;42.656;23.382;2022-12-10T11:23:01;93896.97;;;16.41;58.55
68179;BME280;54998;42.656;23.382;2022-12-10T11:30:44;93875.66;;;16.13;58.18
68179;BME280;54998;42.656;23.382;2022-12-10T11:33:36;93876.47;;;16.33;57.43
68179;BME280;54998;42.656;23.382;2022-12-10T11:41:44;93885.88;;;17.26;54.12
68179;BME280;54998;42.656;23.382;2022-12-10T11:44:25;93884.00;;;16.95;54.27
68179;BME280;54998;42.656;23.382;2022-12-10T11:55:05;93877.03;;;16.09;57.30
68179;BME280;54998;42.656;23.382;2022-12-10T11:57:54;93875.31;;;15.68;58.72
68179;BME280;54998;42.656;23.382;2022-12-10T12:00:24;93871.50;;;15.57;59.06
68179;BME280;54998;42.656;23.382;2022-12-10T12:11:50;93870.31;;;15.46;60.56
68179;BME280;54998;42.656;23.382;2022-12-10T12:14:24;93864.44;;;15.72;59.29
68179;BME280;54998;42.656;23.382;2022-12-10T12:17:11;93871.81;;;15.20;61.03
68179;BME280;54998;42.656;23.382;2022-12-10T12:19:53;93859.22;;;15.11;61.32
68179;BME280;54998;42.656;23.382;2022-12-10T12:22:23;93826.22;;;14.65;62.58
68179;BME280;54998;42.656;23.382;2022-12-10T12:24:53;93849.53;;;14.00;65.73
68179;BME280;54998;42.656;23.382;2022-12-10T12:27:45;93848.63;;;14.36;64.72
68179;BME280;54998;42.656;23.382;2022-12-10T12:32:51;93847.41;;;14.32;65.06
68179;BME280;54998;42.656;23.382;2022-12-10T12:35:51;93834.47;;;14.53;64.75
68179;BME280;54998;42.656;23.382;2022-12-10T12:41:09;93802.63;;;13.90;66.69
68179;BME280;54998;42.656;23.382;2022-12-10T12:44:03;93816.00;;;13.79;67.56
68179;BME280;54998;42.656;23.382;2022-12-10T12:46:35;93803.63;;;13.67;68.36
68179;BME280;54998;42.656;23.382;2022-12-10T12:49:08;93804.41;;;13.46;68.51
68179;BME280;54998;42.656;23.382;2022-12-10T12:51:40;93800.44;;;13.65;67.89
68179;BME280;54998;42.656;23.382;2022-12-10T12:54:13;93788.16;;;13.67;67.94
68179;BME280;54998;42.656;23.382;2022-12-10T12:57:06;93793.63;;;13.58;68.81
68179;BME280;54998;42.656;23.382;2022-12-10T12:59:50;93792.94;;;13.70;68.67
68179;BME280;54998;42.656;23.382;2022-12-10T13:05:31;93775.84;;;13.26;70.49
68179;BME280;54998;42.656;23.382;2022-12-10T13:14:02;93771.22;;;13.22;71.04
68179;BME280;54998;42.656;23.382;2022-12-10T14:48:29;93686.47;;;12.32;73.37
68179;BME280;54998;42.656;23.382;2022-12-10T14:51:03;93678.91;;;12.46;72.69
68179;BME280;54998;42.656;23.382;2022-12-10T14:53:28;93669.47;;;12.53;72.47
68179;BME280;54998;42.656;23.382;2022-12-10T14:56:00;93674.19;;;12.49;72.91
68179;BME280;54998;42.656;23.382;2022-12-10T14:59:29;93665.16;;;12.53;72.59
68179;BME280;54998;42.656;23.382;2022-12-10T15:01:38;93668.78;;;12.44;72.82
68179;BME280;54998;42.656;23.382;2022-12-10T15:04:06;93665.63;;;12.27;73.16
68179;BME280;54998;42.656;23.382;2022-12-10T15:06:37;93677.03;;;12.40;72.69
68179;BME280;54998;42.656;23.382;2022-12-10T15:09:04;93681.84;;;12.43;72.69
68179;BME280;54998;42.656;23.382;2022-12-10T15:11:30;93679.44;;;12.41;72.77
68179;BME280;54998;42.656;23.382;2022-12-10T15:13:59;93681.94;;;12.35;73.32
68179;BME280;54998;42.656;23.382;2022-12-10T15:16:42;93686.63;;;12.31;72.81
68179;BME280;54998;42.656;23.382;2022-12-10T15:22:01;93682.47;;;12.30;73.10
68179;BME280;54998;42.656;23.382;2022-12-10T15:24:38;93676.41;;;12.38;72.79
68179;BME280;54998;42.656;23.382;2022-12-10T15:27:35;93666.22;;;12.44;72.83
68179;BME280;54998;42.656;23.382;2022-12-10T15:30:24;93674.28;;;12.41;73.20
68179;BME280;54998;42.656;23.382;2022-12-10T15:32:50;93658.78;;;12.35;73.37
68179;BME280;54998;42.656;23.382;2022-12-10T15:35:15;93658.63;;;12.36;73.59
68179;BME280;54998;42.656;23.382;2022-12-10T15:37:41;93654.88;;;12.39;73.51
68179;BME280;54998;42.656;23.382;2022-12-10T15:40:28;93651.69;;;12.37;73.89
68179;BME280;54998;42.656;23.382;2022-12-10T15:45:42;93646.72;;;12.20;74.99
68179;BME280;54998;42.656;23.382;2022-12-10T15:48:10;93654.28;;;12.22;75.22
68179;BME280;54998;42.656;23.382;2022-12-10T15:50:37;93643.63;;;12.25;75.71
68179;BME280;54998;42.656;23.382;2022-12-10T15:53:03;93649.56;;;12.25;75.66
68179;BME280;54998;42.656;23.382;2022-12-10T15:55:28;93646.75;;;12.05;76.18
68179;BME280;54998;42.656;23.382;2022-12-10T15:57:54;93657.63;;;11.78;77.30
68179;BME280;54998;42.656;23.382;2022-12-10T16:00:24;93644.00;;;11.92;79.87
68179;BME280;54998;42.656;23.382;2022-12-10T16:02:53;93640.56;;;12.00;80.24
68179;BME280;54998;42.656;23.382;2022-12-10T16:07:52;93642.22;;;11.78;80.97
68179;BME280;54998;42.656;23.382;2022-12-10T16:10:19;93640.63;;;11.91;80.38